createdAt,value
2022-08-12T03:48:50.449Z,49.65
2022-08-12T03:52:12.589Z,49.65
2022-08-12T03:55:34.146Z,51.16
2022-08-12T03:58:56.019Z,51.16
2022-08-12T04:01:58.688Z,45.31
2022-08-12T04:05:02.784Z,45.89
2022-08-12T04:08:09.342Z,44.42
2022-08-12T04:11:32.236Z,44.92
2022-08-12T04:14:35.779Z,46.91
2022-08-12T04:18:06.707Z,45.41
2022-08-12T04:21:03.681Z,47.23
2022-08-12T04:24:06.416Z,45.47
2022-08-12T04:27:10.358Z,46.77
2022-08-12T04:30:31.318Z,44.76
2022-08-12T04:33:37.070Z,47.08
2022-08-12T04:36:41.599Z,46.36
2022-08-12T04:39:45.867Z,45.74
2022-08-12T04:42:48.606Z,46.46
2022-08-12T04:45:52.655Z,45.84
2022-08-12T04:48:55.450Z,48.76
2022-08-12T04:51:59.726Z,44.77
2022-08-12T04:55:03.357Z,44.98
2022-08-12T04:58:09.476Z,44.95
2022-08-12T05:01:13.074Z,44.01
2022-08-12T05:04:16.261Z,46.23
2022-08-12T05:07:20.294Z,45.16
2022-08-12T05:10:33.398Z,46.59
2022-08-12T05:13:40.506Z,43.32
2022-08-12T05:16:43.523Z,43.69
2022-08-12T05:19:48.567Z,45.11
2022-08-12T05:22:53.108Z,45.18
2022-08-12T05:26:01.094Z,42.85
2022-08-12T05:29:05.928Z,43.79
2022-08-12T05:32:28.251Z,43.57
2022-08-12T05:35:31.666Z,43.36
2022-08-12T05:38:54.882Z,43.62
2022-08-12T05:41:57.697Z,42.26
2022-08-12T05:45:00.466Z,43.22
2022-08-12T05:48:02.871Z,42.98
2022-08-12T05:51:05.779Z,42.06
2022-08-12T05:54:10.401Z,42.32
2022-08-12T05:57:13.189Z,41.35
2022-08-12T06:00:17.350Z,40.80
2022-08-12T06:03:21.374Z,42.69
2022-08-12T06:06:27.482Z,42.78
2022-08-12T06:09:30.952Z,41.88
2022-08-12T06:12:33.376Z,43.15
2022-08-12T06:15:37.860Z,45.07
2022-08-12T06:18:41.716Z,40.96
2022-08-12T06:21:48.773Z,41.47
2022-08-12T06:24:52.890Z,41.50
2022-08-12T06:28:06.588Z,41.24
2022-08-12T06:31:27.029Z,41.43
2022-08-12T06:35:25.790Z,41.69
2022-08-12T06:37:57.651Z,40.57
2022-08-12T06:41:19.635Z,40.80
2022-08-12T06:44:22.298Z,40.67
2022-08-12T06:47:24.916Z,41.15
2022-08-12T06:53:37.977Z,39.19
2022-08-12T06:57:03.188Z,41.69
2022-08-12T07:00:05.113Z,41.55
2022-08-12T07:03:16.209Z,41.09
2022-08-12T07:06:25.713Z,40.25
2022-08-12T07:10:04.376Z,39.36
2022-08-12T07:12:54.800Z,38.34
2022-08-12T07:15:58.639Z,37.29
2022-08-12T07:19:01.320Z,37.04
2022-08-12T07:22:06.407Z,37.82
2022-08-12T07:25:28.640Z,38.15
2022-08-12T07:28:34.858Z,39.37
2022-08-12T07:31:38.802Z,38.15
2022-08-12T07:34:42.568Z,38.11
2022-08-12T07:37:45.346Z,38.08
2022-08-12T07:40:48.029Z,39.11
2022-08-12T07:44:04.313Z,36.79
2022-08-12T07:47:07.950Z,36.63
2022-08-12T07:50:14.065Z,36.92
2022-08-12T07:53:16.792Z,37.56
2022-08-12T07:56:19.758Z,37.26
2022-08-12T07:59:24.031Z,37.44
2022-08-12T08:02:27.335Z,39.85
2022-08-12T08:05:46.427Z,36.50
2022-08-12T08:08:48.908Z,38.06
2022-08-12T08:12:19.044Z,36.53
2022-08-12T08:15:44.429Z,36.52
2022-08-12T08:18:47.321Z,35.90
2022-08-12T08:21:54.921Z,36.22
2022-08-12T08:24:58.459Z,36.77
2022-08-12T08:28:03.944Z,35.46
2022-08-12T08:31:06.985Z,35.06
2022-08-12T08:34:33.722Z,35.40
2022-08-12T08:37:37.061Z,37.46
2022-08-12T08:41:01.799Z,36.20
2022-08-12T08:44:04.668Z,35.24
2022-08-12T08:47:08.899Z,35.14
2022-08-12T08:50:15.034Z,34.80
2022-08-12T08:53:18.596Z,35.02
2022-08-12T08:56:22.289Z,34.92
2022-08-12T08:59:25.083Z,34.57
2022-08-12T09:02:27.730Z,33.91
2022-08-12T09:06:01.772Z,35.58
2022-08-12T09:08:55.438Z,34.57
2022-08-12T09:15:41.708Z,33.23
2022-08-12T09:18:44.784Z,32.28
2022-08-12T09:21:54.536Z,31.99
2022-08-12T09:25:01.254Z,31.18
2022-08-12T09:32:07.944Z,32.29
2022-08-12T09:34:57.261Z,31.61
2022-08-12T09:38:05.092Z,31.58
2022-08-12T09:42:33.504Z,31.17
2022-08-12T09:44:49.102Z,32.00
2022-08-12T09:48:20.458Z,34.84
2022-08-12T09:51:37.284Z,34.59
2022-08-12T09:54:42.895Z,30.80
2022-08-12T09:58:44.983Z,29.98
2022-08-12T10:01:15.388Z,29.38
2022-08-12T10:04:25.754Z,30.35
2022-08-12T10:07:39.794Z,29.66
2022-08-12T10:11:04.879Z,30.84
2022-08-12T10:14:07.234Z,29.47
2022-08-12T10:17:15.953Z,32.23
2022-08-12T10:20:19.089Z,32.80
2022-08-12T10:23:39.417Z,28.26
2022-08-12T10:27:06.066Z,29.04
2022-08-12T10:30:40.228Z,28.96
2022-08-12T10:33:33.573Z,30.11
2022-08-12T10:36:47.833Z,32.00
2022-08-12T10:40:01.198Z,31.35
2022-08-12T10:46:36.456Z,36.67
2022-08-12T10:52:52.637Z,36.06
2022-08-12T10:55:56.968Z,29.54
2022-08-12T10:58:59.657Z,28.61
2022-08-12T11:04:23.464Z,28.37
2022-08-12T11:07:02.478Z,28.45
2022-08-12T11:08:48.852Z,28.67
2022-08-12T11:12:34.817Z,29.37
2022-08-12T11:15:20.447Z,28.98
2022-08-12T11:18:24.001Z,28.41
2022-08-12T11:21:56.050Z,28.99
2022-08-12T11:24:51.156Z,29.94
2022-08-12T11:27:54.524Z,29.68
2022-08-12T11:30:57.088Z,29.15
2022-08-12T11:34:52.623Z,28.79
2022-08-12T11:37:28.446Z,28.84
2022-08-12T11:40:32.623Z,29.22
2022-08-12T11:43:50.294Z,29.66
2022-08-12T11:46:58.894Z,29.29
2022-08-12T11:50:01.455Z,29.41
2022-08-12T11:53:04.395Z,29.00
2022-08-12T11:56:07.320Z,28.84
2022-08-12T12:02:38.010Z,28.84
2022-08-12T12:05:45.849Z,29.59
2022-08-12T12:08:52.744Z,29.84
2022-08-12T12:11:56.338Z,29.94
2022-08-12T12:15:03.162Z,29.76
2022-08-12T12:18:30.897Z,29.94
2022-08-12T12:21:47.437Z,29.87
2022-08-12T12:24:52.565Z,30.29
2022-08-12T12:28:05.762Z,30.47
2022-08-12T12:31:14.816Z,31.05
2022-08-12T12:34:31.696Z,30.09
2022-08-12T12:38:04.740Z,32.05
2022-08-12T12:40:57.141Z,30.88
2022-08-12T12:44:04.193Z,29.88
2022-08-12T12:47:26.036Z,29.01
2022-08-12T12:50:42.781Z,28.60
2022-08-12T12:54:07.195Z,29.46
2022-08-12T12:57:14.568Z,29.30
2022-08-12T13:00:21.354Z,28.49
2022-08-12T13:03:24.237Z,27.87
2022-08-12T13:06:30.256Z,26.52
2022-08-12T13:09:36.133Z,26.63
2022-08-12T13:12:40.203Z,28.11
2022-08-12T13:15:45.577Z,28.60
2022-08-12T13:18:51.991Z,29.28
2022-08-12T13:22:14.268Z,30.17
2022-08-12T13:25:20.581Z,28.91
2022-08-12T13:28:28.634Z,30.76
2022-08-12T13:31:35.646Z,29.24
2022-08-12T13:34:53.371Z,29.66
2022-08-12T13:38:09.282Z,31.31
2022-08-12T13:41:18.173Z,29.47
2022-08-12T13:44:20.682Z,29.58
2022-08-12T13:47:24.374Z,28.63
2022-08-12T13:50:45.005Z,29.02
2022-08-12T13:53:59.155Z,27.41
2022-08-12T13:57:02.796Z,27.60
2022-08-12T14:00:09.507Z,27.77
2022-08-12T14:03:16.237Z,27.11
2022-08-12T14:06:20.355Z,26.92
2022-08-12T14:09:22.709Z,26.97
2022-08-12T14:12:50.776Z,26.32
2022-08-12T14:16:00.169Z,25.09
2022-08-12T14:19:04.451Z,25.13
2022-08-12T14:22:13.815Z,25.00
2022-08-12T14:25:18.613Z,25.04
2022-08-12T14:28:28.571Z,25.16
2022-08-12T14:31:32.402Z,25.36
2022-08-12T14:34:34.986Z,25.40
2022-08-12T14:37:56.642Z,25.25
2022-08-12T14:41:03.002Z,25.42
2022-08-12T14:44:57.369Z,26.00
2022-08-12T14:47:35.519Z,26.66
2022-08-12T14:51:02.689Z,26.96
2022-08-12T14:56:59.013Z,26.79
2022-08-12T14:57:24.689Z,26.83
2022-08-12T15:00:58.606Z,26.30
2022-08-12T15:04:02.234Z,26.46
2022-08-12T15:07:04.923Z,26.00
2022-08-12T15:10:09.718Z,26.36
2022-08-12T15:13:13.297Z,26.27
2022-08-12T15:38:22.418Z,26.06
2022-08-12T15:41:28.954Z,26.06
2022-08-12T15:44:51.146Z,26.58
2022-08-12T15:48:16.357Z,26.10
2022-08-12T15:51:57.628Z,26.11
2022-08-12T15:54:52.708Z,26.31
2022-08-12T15:58:01.678Z,26.64
2022-08-12T16:01:13.818Z,27.63
2022-08-12T16:04:18.817Z,28.10
2022-08-12T16:07:29.627Z,28.58
